sensor_id;sensor_type;location;lat;lon;timestamp;temperature;humidity
12291;DHT22;6208;48.956;9.076;2024-03-02T00:01:24;7.40;99.90
12291;DHT22;6208;48.956;9.076;2024-03-02T00:18:18;7.10;99.90
12291;DHT22;6208;48.956;9.076;2024-03-02T00:21:03;7.40;99.90
12291;DHT22;6208;48.956;9.076;2024-03-02T00:23:48;7.20;99.90
12291;DHT22;6208;48.956;9.076;2024-03-02T00:26:35;7.30;99.90
12291;DHT22;6208;48.956;9.076;2024-03-02T00:32:11;7.30;99.90
12291;DHT22;6208;48.956;9.076;2024-03-02T00:34:57;7.30;99.90
12291;DHT22;6208;48.956;9.076;2024-03-02T00:37:41;7.10;99.90
12291;DHT22;6208;48.956;9.076;2024-03-02T00:40:29;7.10;99.90
12291;DHT22;6208;48.956;9.076;2024-03-02T00:46:15;7.00;99.90
12291;DHT22;6208;48.956;9.076;2024-03-02T00:49:02;6.90;99.90
12291;DHT22;6208;48.956;9.076;2024-03-02T01:02:48;6.70;99.90
12291;DHT22;6208;48.956;9.076;2024-03-02T01:13:48;6.60;99.90
12291;DHT22;6208;48.956;9.076;2024-03-02T01:22:02;6.60;99.90
12291;DHT22;6208;48.956;9.076;2024-03-02T01:24:46;6.80;99.90
12291;DHT22;6208;48.956;9.076;2024-03-02T01:33:00;6.60;99.90
12291;DHT22;6208;48.956;9.076;2024-03-02T01:35:44;6.70;99.90
12291;DHT22;6208;48.956;9.076;2024-03-02T01:38:28;6.70;99.90
12291;DHT22;6208;48.956;9.076;2024-03-02T01:41:13;6.70;99.90
12291;DHT22;6208;48.956;9.076;2024-03-02T01:46:41;6.50;99.90
12291;DHT22;6208;48.956;9.076;2024-03-02T02:05:54;6.30;99.90
12291;DHT22;6208;48.956;9.076;2024-03-02T02:11:24;6.30;99.90
12291;DHT22;6208;48.956;9.076;2024-03-02T02:14:08;6.30;99.90
12291;DHT22;6208;48.956;9.076;2024-03-02T02:22:21;6.20;99.90
12291;DHT22;6208;48.956;9.076;2024-03-02T02:25:06;6.20;99.90
12291;DHT22;6208;48.956;9.076;2024-03-02T02:41:33;6.10;99.90
12291;DHT22;6208;48.956;9.076;2024-03-02T02:52:32;6.10;99.90
12291;DHT22;6208;48.956;9.076;2024-03-02T04:23:07;5.50;99.90
12291;DHT22;6208;48.956;9.076;2024-03-02T04:39:36;5.30;99.90
12291;DHT22;6208;48.956;9.076;2024-03-02T07:24:46;6.00;99.90
12291;DHT22;6208;48.956;9.076;2024-03-02T07:27:31;6.10;99.90
12291;DHT22;6208;48.956;9.076;2024-03-02T07:30:15;6.20;99.90
12291;DHT22;6208;48.956;9.076;2024-03-02T07:38:33;6.30;99.90
12291;DHT22;6208;48.956;9.076;2024-03-02T07:52:21;6.40;99.90
12291;DHT22;6208;48.956;9.076;2024-03-02T07:55:05;6.40;99.90
12291;DHT22;6208;48.956;9.076;2024-03-02T08:03:19;6.50;99.90
12291;DHT22;6208;48.956;9.076;2024-03-02T08:06:03;6.50;99.90
12291;DHT22;6208;48.956;9.076;2024-03-02T08:08:48;6.30;99.90
12291;DHT22;6208;48.956;9.076;2024-03-02T08:14:17;6.60;99.90
12291;DHT22;6208;48.956;9.076;2024-03-02T08:17:01;6.60;99.90
12291;DHT22;6208;48.956;9.076;2024-03-02T08:22:32;6.80;99.90
12291;DHT22;6208;48.956;9.076;2024-03-02T08:25:16;6.80;99.90
12291;DHT22;6208;48.956;9.076;2024-03-02T08:28:01;7.00;99.90
12291;DHT22;6208;48.956;9.076;2024-03-02T08:38:59;7.80;99.90
12291;DHT22;6208;48.956;9.076;2024-03-02T08:41:47;8.00;99.90
12291;DHT22;6208;48.956;9.076;2024-03-02T08:44:32;8.30;99.90
12291;DHT22;6208;48.956;9.076;2024-03-02T08:50:02;8.30;99.90
12291;DHT22;6208;48.956;9.076;2024-03-02T08:55:32;9.00;99.90
12291;DHT22;6208;48.956;9.076;2024-03-02T08:58:16;9.30;99.90
12291;DHT22;6208;48.956;9.076;2024-03-02T09:01:00;8.90;99.90
12291;DHT22;6208;48.956;9.076;2024-03-02T09:09:14;9.00;99.90
12291;DHT22;6208;48.956;9.076;2024-03-02T09:36:43;9.50;99.90
12291;DHT22;6208;48.956;9.076;2024-03-02T09:39:27;9.60;99.90
12291;DHT22;6208;48.956;9.076;2024-03-02T09:42:12;9.70;99.90
12291;DHT22;6208;48.956;9.076;2024-03-02T09:44:57;9.50;99.90
12291;DHT22;6208;48.956;9.076;2024-03-02T09:50:25;9.80;99.90
12291;DHT22;6208;48.956;9.076;2024-03-02T09:53:10;9.80;99.90
12291;DHT22;6208;48.956;9.076;2024-03-02T09:55:55;10.00;99.90
12291;DHT22;6208;48.956;9.076;2024-03-02T09:58:40;10.10;99.90
12291;DHT22;6208;48.956;9.076;2024-03-02T10:04:09;10.10;99.90
12291;DHT22;6208;48.956;9.076;2024-03-02T10:09:57;10.30;99.90
12291;DHT22;6208;48.956;9.076;2024-03-02T10:12:41;10.40;99.90
12291;DHT22;6208;48.956;9.076;2024-03-02T10:15:25;10.40;99.90
12291;DHT22;6208;48.956;9.076;2024-03-02T10:18:10;10.40;99.90
12291;DHT22;6208;48.956;9.076;2024-03-02T10:21:13;10.50;99.90
12291;DHT22;6208;48.956;9.076;2024-03-02T10:24:07;10.60;99.90
12291;DHT22;6208;48.956;9.076;2024-03-02T10:26:54;10.70;99.90
12291;DHT22;6208;48.956;9.076;2024-03-02T10:29:40;10.80;99.90
12291;DHT22;6208;48.956;9.076;2024-03-02T10:32:26;11.00;99.90
12291;DHT22;6208;48.956;9.076;2024-03-02T10:35:10;11.20;99.90
12291;DHT22;6208;48.956;9.076;2024-03-02T10:40:39;11.20;99.90
12291;DHT22;6208;48.956;9.076;2024-03-02T10:43:23;11.20;99.90
12291;DHT22;6208;48.956;9.076;2024-03-02T10:51:36;11.30;99.90
12291;DHT22;6208;48.956;9.076;2024-03-02T10:54:21;11.50;99.90
12291;DHT22;6208;48.956;9.076;2024-03-02T10:57:11;11.50;99.90
12291;DHT22;6208;48.956;9.076;2024-03-02T11:00:02;11.20;99.90
12291;DHT22;6208;48.956;9.076;2024-03-02T11:02:51;11.70;99.90
12291;DHT22;6208;48.956;9.076;2024-03-02T11:05:38;11.30;99.90
12291;DHT22;6208;48.956;9.076;2024-03-02T11:08:24;11.70;99.90
12291;DHT22;6208;48.956;9.076;2024-03-02T11:11:15;11.50;99.90
12291;DHT22;6208;48.956;9.076;2024-03-02T11:14:04;11.80;99.90
12291;DHT22;6208;48.956;9.076;2024-03-02T11:19:39;12.00;99.90
12291;DHT22;6208;48.956;9.076;2024-03-02T11:22:24;12.10;99.90
12291;DHT22;6208;48.956;9.076;2024-03-02T11:25:26;12.10;99.90
12291;DHT22;6208;48.956;9.076;2024-03-02T11:28:11;12.20;99.90
12291;DHT22;6208;48.956;9.076;2024-03-02T11:33:39;12.30;99.90
12291;DHT22;6208;48.956;9.076;2024-03-02T11:36:23;12.30;99.90
12291;DHT22;6208;48.956;9.076;2024-03-02T11:39:09;12.40;99.90
12291;DHT22;6208;48.956;9.076;2024-03-02T11:50:07;12.70;99.90
12291;DHT22;6208;48.956;9.076;2024-03-02T11:55:38;12.90;99.90
12291;DHT22;6208;48.956;9.076;2024-03-02T11:58:23;12.90;99.90
12291;DHT22;6208;48.956;9.076;2024-03-02T12:03:54;13.00;99.90
12291;DHT22;6208;48.956;9.076;2024-03-02T12:09:23;13.30;99.90
12291;DHT22;6208;48.956;9.076;2024-03-02T12:12:09;13.20;99.90
12291;DHT22;6208;48.956;9.076;2024-03-02T12:14:54;13.10;99.90
12291;DHT22;6208;48.956;9.076;2024-03-02T12:17:39;13.20;99.90
12291;DHT22;6208;48.956;9.076;2024-03-02T12:20:25;13.20;99.90
12291;DHT22;6208;48.956;9.076;2024-03-02T12:23:09;13.60;99.90
12291;DHT22;6208;48.956;9.076;2024-03-02T12:25:54;13.20;99.90
12291;DHT22;6208;48.956;9.076;2024-03-02T12:28:38;13.30;99.90
12291;DHT22;6208;48.956;9.076;2024-03-02T12:31:22;13.40;99.90
12291;DHT22;6208;48.956;9.076;2024-03-02T12:34:06;13.40;99.90
12291;DHT22;6208;48.956;9.076;2024-03-02T12:36:50;13.50;99.90
12291;DHT22;6208;48.956;9.076;2024-03-02T12:42:23;13.80;99.90
12291;DHT22;6208;48.956;9.076;2024-03-02T12:45:08;13.90;99.90
12291;DHT22;6208;48.956;9.076;2024-03-02T12:53:21;14.00;99.90
12291;DHT22;6208;48.956;9.076;2024-03-02T12:56:07;14.20;99.90
12291;DHT22;6208;48.956;9.076;2024-03-02T12:58:55;14.20;99.90
12291;DHT22;6208;48.956;9.076;2024-03-02T13:01:50;14.20;99.90
12291;DHT22;6208;48.956;9.076;2024-03-02T13:04:34;14.20;99.90
12291;DHT22;6208;48.956;9.076;2024-03-02T13:07:19;14.10;99.90
12291;DHT22;6208;48.956;9.076;2024-03-02T13:10:04;14.40;99.90
12291;DHT22;6208;48.956;9.076;2024-03-02T13:12:49;14.40;99.90
12291;DHT22;6208;48.956;9.076;2024-03-02T13:15:34;14.50;99.90
12291;DHT22;6208;48.956;9.076;2024-03-02T13:18:18;14.50;99.90
12291;DHT22;6208;48.956;9.076;2024-03-02T13:21:03;14.90;99.90
12291;DHT22;6208;48.956;9.076;2024-03-02T13:23:48;15.10;99.90
12291;DHT22;6208;48.956;9.076;2024-03-02T13:26:32;15.40;99.90
12291;DHT22;6208;48.956;9.076;2024-03-02T13:29:15;15.50;99.90
12291;DHT22;6208;48.956;9.076;2024-03-02T13:37:29;16.70;99.90
12291;DHT22;6208;48.956;9.076;2024-03-02T13:43:03;17.30;99.30
12291;DHT22;6208;48.956;9.076;2024-03-02T13:45:47;17.50;99.90
12291;DHT22;6208;48.956;9.076;2024-03-02T13:48:31;17.70;99.90
12291;DHT22;6208;48.956;9.076;2024-03-02T13:54:00;18.00;99.90
12291;DHT22;6208;48.956;9.076;2024-03-02T13:59:32;18.30;99.90
12291;DHT22;6208;48.956;9.076;2024-03-02T14:05:02;18.50;99.90
12291;DHT22;6208;48.956;9.076;2024-03-02T14:07:46;18.60;99.90
12291;DHT22;6208;48.956;9.076;2024-03-02T14:13:15;18.70;99.90
12291;DHT22;6208;48.956;9.076;2024-03-02T14:15:59;18.90;99.90
12291;DHT22;6208;48.956;9.076;2024-03-02T14:18:43;18.90;99.90
12291;DHT22;6208;48.956;9.076;2024-03-02T14:24:12;19.10;99.90
12291;DHT22;6208;48.956;9.076;2024-03-02T14:26:57;18.90;99.90
12291;DHT22;6208;48.956;9.076;2024-03-02T14:29:43;18.80;99.90
12291;DHT22;6208;48.956;9.076;2024-03-02T14:35:12;18.60;99.90
12291;DHT22;6208;48.956;9.076;2024-03-02T14:43:27;18.80;99.90
12291;DHT22;6208;48.956;9.076;2024-03-02T14:46:11;18.80;99.90
12291;DHT22;6208;48.956;9.076;2024-03-02T14:54:25;19.10;99.30
12291;DHT22;6208;48.956;9.076;2024-03-02T14:59:55;19.00;99.40
12291;DHT22;6208;48.956;9.076;2024-03-02T15:02:39;19.10;99.00
12291;DHT22;6208;48.956;9.076;2024-03-02T15:08:09;18.70;85.10
12291;DHT22;6208;48.956;9.076;2024-03-02T15:10:54;18.70;97.30
12291;DHT22;6208;48.956;9.076;2024-03-02T15:16:27;18.30;99.90
12291;DHT22;6208;48.956;9.076;2024-03-02T15:24:41;17.80;99.80
12291;DHT22;6208;48.956;9.076;2024-03-02T15:27:25;17.60;98.30
12291;DHT22;6208;48.956;9.076;2024-03-02T15:30:11;17.40;99.90
12291;DHT22;6208;48.956;9.076;2024-03-02T15:35:40;17.00;99.90
12291;DHT22;6208;48.956;9.076;2024-03-02T15:38:25;17.00;98.50
12291;DHT22;6208;48.956;9.076;2024-03-02T15:43:54;16.70;99.70
12291;DHT22;6208;48.956;9.076;2024-03-02T15:49:24;16.60;98.80
12291;DHT22;6208;48.956;9.076;2024-03-02T16:05:51;15.50;99.90
12291;DHT22;6208;48.956;9.076;2024-03-02T16:25:03;14.60;99.90
12291;DHT22;6208;48.956;9.076;2024-03-02T16:44:16;14.20;99.90
12291;DHT22;6208;48.956;9.076;2024-03-02T16:47:01;14.10;99.90
12291;DHT22;6208;48.956;9.076;2024-03-02T17:00:43;13.90;99.90
12291;DHT22;6208;48.956;9.076;2024-03-02T17:03:28;14.10;99.90
12291;DHT22;6208;48.956;9.076;2024-03-02T17:08:57;13.90;99.90
12291;DHT22;6208;48.956;9.076;2024-03-02T17:11:41;13.80;99.90
12291;DHT22;6208;48.956;9.076;2024-03-02T17:14:25;13.60;99.90
12291;DHT22;6208;48.956;9.076;2024-03-02T17:19:54;13.50;99.90
12291;DHT22;6208;48.956;9.076;2024-03-02T17:22:38;13.20;99.90
12291;DHT22;6208;48.956;9.076;2024-03-02T17:25:22;13.60;99.90
12291;DHT22;6208;48.956;9.076;2024-03-02T17:28:22;13.40;99.90
12291;DHT22;6208;48.956;9.076;2024-03-02T17:31:08;13.20;99.90
12291;DHT22;6208;48.956;9.076;2024-03-02T17:39:22;13.10;99.90
12291;DHT22;6208;48.956;9.076;2024-03-02T17:42:06;13.10;99.90
12291;DHT22;6208;48.956;9.076;2024-03-02T17:44:50;13.00;99.90
12291;DHT22;6208;48.956;9.076;2024-03-02T17:50:19;12.90;99.90
12291;DHT22;6208;48.956;9.076;2024-03-02T17:53:03;12.90;99.90
12291;DHT22;6208;48.956;9.076;2024-03-02T17:55:47;12.80;99.90
12291;DHT22;6208;48.956;9.076;2024-03-02T18:04:01;12.70;99.90
12291;DHT22;6208;48.956;9.076;2024-03-02T18:14:59;12.80;99.90
12291;DHT22;6208;48.956;9.076;2024-03-02T18:17:43;12.60;99.90
12291;DHT22;6208;48.956;9.076;2024-03-02T18:20:29;12.70;99.90
12291;DHT22;6208;48.956;9.076;2024-03-02T18:28:43;12.60;99.90
12291;DHT22;6208;48.956;9.076;2024-03-02T18:36:56;12.60;99.90
12291;DHT22;6208;48.956;9.076;2024-03-02T18:39:40;12.20;99.90
12291;DHT22;6208;48.956;9.076;2024-03-02T18:42:25;12.50;99.90
12291;DHT22;6208;48.956;9.076;2024-03-02T18:47:54;12.20;99.90
12291;DHT22;6208;48.956;9.076;2024-03-02T18:56:07;11.90;99.90
12291;DHT22;6208;48.956;9.076;2024-03-02T18:58:51;12.10;99.90
12291;DHT22;6208;48.956;9.076;2024-03-02T19:01:35;12.10;99.90
12291;DHT22;6208;48.956;9.076;2024-03-02T19:09:48;11.90;99.90
12291;DHT22;6208;48.956;9.076;2024-03-02T19:12:32;11.70;99.90
12291;DHT22;6208;48.956;9.076;2024-03-02T19:15:17;11.80;99.90
12291;DHT22;6208;48.956;9.076;2024-03-02T19:18:02;12.00;99.90
12291;DHT22;6208;48.956;9.076;2024-03-02T19:20:46;11.80;99.90
12291;DHT22;6208;48.956;9.076;2024-03-02T19:23:30;11.90;99.90
12291;DHT22;6208;48.956;9.076;2024-03-02T19:26:14;11.80;99.90
12291;DHT22;6208;48.956;9.076;2024-03-02T19:34:31;11.80;99.90
12291;DHT22;6208;48.956;9.076;2024-03-02T19:37:15;11.80;99.90
12291;DHT22;6208;48.956;9.076;2024-03-02T19:40:00;11.70;99.90
12291;DHT22;6208;48.956;9.076;2024-03-02T19:45:30;11.30;99.90
12291;DHT22;6208;48.956;9.076;2024-03-02T19:48:15;11.70;99.90
12291;DHT22;6208;48.956;9.076;2024-03-02T19:53:45;11.40;99.90
12291;DHT22;6208;48.956;9.076;2024-03-02T19:56:30;11.50;99.90
12291;DHT22;6208;48.956;9.076;2024-03-02T19:59:14;11.40;99.90
12291;DHT22;6208;48.956;9.076;2024-03-02T20:01:58;11.40;99.90
12291;DHT22;6208;48.956;9.076;2024-03-02T20:07:27;11.40;99.90
12291;DHT22;6208;48.956;9.076;2024-03-02T20:10:11;11.10;99.90
12291;DHT22;6208;48.956;9.076;2024-03-02T20:12:57;11.30;99.90
12291;DHT22;6208;48.956;9.076;2024-03-02T20:18:26;11.20;99.90
12291;DHT22;6208;48.956;9.076;2024-03-02T20:21:10;11.50;99.90
12291;DHT22;6208;48.956;9.076;2024-03-02T20:23:55;11.10;99.90
12291;DHT22;6208;48.956;9.076;2024-03-02T20:26:39;11.10;99.90
12291;DHT22;6208;48.956;9.076;2024-03-02T20:32:08;11.00;99.90
12291;DHT22;6208;48.956;9.076;2024-03-02T20:34:52;10.80;99.90
12291;DHT22;6208;48.956;9.076;2024-03-02T20:43:05;10.80;99.90
12291;DHT22;6208;48.956;9.076;2024-03-02T20:45:50;10.90;99.90
12291;DHT22;6208;48.956;9.076;2024-03-02T20:48:34;10.80;99.90
12291;DHT22;6208;48.956;9.076;2024-03-02T20:51:18;11.20;99.90
12291;DHT22;6208;48.956;9.076;2024-03-02T20:54:02;10.80;99.90
12291;DHT22;6208;48.956;9.076;2024-03-02T20:59:35;10.70;99.90
12291;DHT22;6208;48.956;9.076;2024-03-02T21:02:19;11.10;99.90
12291;DHT22;6208;48.956;9.076;2024-03-02T21:05:04;10.50;99.90
12291;DHT22;6208;48.956;9.076;2024-03-02T21:07:48;10.60;99.90
12291;DHT22;6208;48.956;9.076;2024-03-02T21:10:33;10.60;99.90
12291;DHT22;6208;48.956;9.076;2024-03-02T21:16:02;10.40;99.90
12291;DHT22;6208;48.956;9.076;2024-03-02T21:18:47;10.20;99.90
12291;DHT22;6208;48.956;9.076;2024-03-02T21:21:31;10.40;99.90
12291;DHT22;6208;48.956;9.076;2024-03-02T21:24:16;10.50;99.90
12291;DHT22;6208;48.956;9.076;2024-03-02T21:27:00;10.40;99.90
12291;DHT22;6208;48.956;9.076;2024-03-02T21:29:45;10.30;99.90
12291;DHT22;6208;48.956;9.076;2024-03-02T21:32:28;10.20;99.90
12291;DHT22;6208;48.956;9.076;2024-03-02T21:35:12;10.30;99.90
12291;DHT22;6208;48.956;9.076;2024-03-02T21:38:00;10.30;99.90
12291;DHT22;6208;48.956;9.076;2024-03-02T21:40:46;10.30;99.90
12291;DHT22;6208;48.956;9.076;2024-03-02T21:43:31;10.20;99.90
12291;DHT22;6208;48.956;9.076;2024-03-02T21:46:17;10.30;99.90
12291;DHT22;6208;48.956;9.076;2024-03-02T21:49:01;10.30;99.90
12291;DHT22;6208;48.956;9.076;2024-03-02T21:51:45;10.20;99.90
12291;DHT22;6208;48.956;9.076;2024-03-02T21:54:30;10.20;99.90
12291;DHT22;6208;48.956;9.076;2024-03-02T21:57:14;10.10;99.90
12291;DHT22;6208;48.956;9.076;2024-03-02T22:00:04;10.30;99.90
12291;DHT22;6208;48.956;9.076;2024-03-02T22:02:49;10.20;99.90
12291;DHT22;6208;48.956;9.076;2024-03-02T22:05:33;10.60;99.90
12291;DHT22;6208;48.956;9.076;2024-03-02T22:08:18;9.90;99.90
12291;DHT22;6208;48.956;9.076;2024-03-02T22:11:03;10.20;99.90
12291;DHT22;6208;48.956;9.076;2024-03-02T22:13:47;10.10;99.90
12291;DHT22;6208;48.956;9.076;2024-03-02T22:16:33;10.10;99.90
12291;DHT22;6208;48.956;9.076;2024-03-02T22:19:17;11.00;99.90
12291;DHT22;6208;48.956;9.076;2024-03-02T22:22:01;9.90;99.90
12291;DHT22;6208;48.956;9.076;2024-03-02T22:24:45;9.90;99.90
12291;DHT22;6208;48.956;9.076;2024-03-02T22:27:29;9.90;99.90
12291;DHT22;6208;48.956;9.076;2024-03-02T22:30:14;10.20;99.90
12291;DHT22;6208;48.956;9.076;2024-03-02T22:32:58;9.80;99.90
12291;DHT22;6208;48.956;9.076;2024-03-02T22:35:42;9.90;99.90
12291;DHT22;6208;48.956;9.076;2024-03-02T22:38:26;9.90;99.90
12291;DHT22;6208;48.956;9.076;2024-03-02T22:41:10;10.50;99.90
12291;DHT22;6208;48.956;9.076;2024-03-02T22:43:55;9.90;99.90
12291;DHT22;6208;48.956;9.076;2024-03-02T22:46:39;10.80;99.90
12291;DHT22;6208;48.956;9.076;2024-03-02T22:49:23;9.90;99.90
12291;DHT22;6208;48.956;9.076;2024-03-02T22:52:07;9.90;99.90
12291;DHT22;6208;48.956;9.076;2024-03-02T22:54:51;9.60;99.90
12291;DHT22;6208;48.956;9.076;2024-03-02T22:57:36;9.90;99.90
12291;DHT22;6208;48.956;9.076;2024-03-02T23:00:20;9.40;99.90
12291;DHT22;6208;48.956;9.076;2024-03-02T23:03:21;9.60;99.90
12291;DHT22;6208;48.956;9.076;2024-03-02T23:06:06;9.50;99.90
12291;DHT22;6208;48.956;9.076;2024-03-02T23:08:51;9.60;99.90
12291;DHT22;6208;48.956;9.076;2024-03-02T23:11:35;9.50;99.90
12291;DHT22;6208;48.956;9.076;2024-03-02T23:14:19;10.10;99.90
12291;DHT22;6208;48.956;9.076;2024-03-02T23:17:04;9.90;99.90
12291;DHT22;6208;48.956;9.076;2024-03-02T23:19:48;10.00;99.90
12291;DHT22;6208;48.956;9.076;2024-03-02T23:22:32;10.00;99.90
12291;DHT22;6208;48.956;9.076;2024-03-02T23:25:16;9.30;99.90
12291;DHT22;6208;48.956;9.076;2024-03-02T23:28:01;9.30;99.90
12291;DHT22;6208;48.956;9.076;2024-03-02T23:30:45;10.10;99.90
12291;DHT22;6208;48.956;9.076;2024-03-02T23:33:29;9.50;99.90
12291;DHT22;6208;48.956;9.076;2024-03-02T23:36:14;9.40;99.90
12291;DHT22;6208;48.956;9.076;2024-03-02T23:38:59;9.30;99.90
12291;DHT22;6208;48.956;9.076;2024-03-02T23:41:45;9.50;99.90
12291;DHT22;6208;48.956;9.076;2024-03-02T23:44:30;9.30;99.90
12291;DHT22;6208;48.956;9.076;2024-03-02T23:47:14;9.00;99.90
12291;DHT22;6208;48.956;9.076;2024-03-02T23:49:58;9.30;99.90
12291;DHT22;6208;48.956;9.076;2024-03-02T23:55:27;9.30;99.90
12291;DHT22;6208;48.956;9.076;2024-03-02T23:58:12;9.30;99.90
